createdAt,value
2023-01-12T00:02:12.812Z,6.96
2023-01-12T00:04:40.508Z,6.92
2023-01-12T00:07:09.890Z,6.91
2023-01-12T00:09:38.150Z,6.74
2023-01-12T00:12:08.470Z,6.51
2023-01-12T00:14:37.177Z,6.37
2023-01-12T00:17:05.707Z,6.37
2023-01-12T00:19:36.879Z,6.25
2023-01-12T00:22:09.615Z,6.17
2023-01-12T00:24:39.754Z,6.19
2023-01-12T00:27:10.177Z,6.10
2023-01-12T00:29:38.924Z,6.10
2023-01-12T00:32:08.967Z,6.03
2023-01-12T00:34:37.991Z,5.99
2023-01-12T00:37:07.526Z,5.78
2023-01-12T00:39:40.375Z,6.03
2023-01-12T00:42:26.677Z,6.03
2023-01-12T00:45:11.985Z,5.96
2023-01-12T00:47:39.935Z,6.03
2023-01-12T00:50:10.047Z,5.85
2023-01-12T00:52:38.071Z,5.94
2023-01-12T00:55:06.333Z,5.76
2023-01-12T00:57:34.107Z,5.72
2023-01-12T01:00:01.970Z,5.76
2023-01-12T01:02:31.291Z,5.65
2023-01-12T01:04:59.247Z,5.66
2023-01-12T01:07:28.523Z,5.58
2023-01-12T01:09:56.465Z,5.74
2023-01-12T01:12:25.055Z,5.75
2023-01-12T01:14:53.425Z,5.87
2023-01-12T01:17:22.048Z,5.81
2023-01-12T01:19:49.690Z,5.84
2023-01-12T01:22:17.460Z,5.83
2023-01-12T01:24:46.486Z,5.94
2023-01-12T01:27:14.260Z,5.98
2023-01-12T01:29:42.616Z,5.81
2023-01-12T01:32:10.555Z,5.89
2023-01-12T01:34:39.528Z,5.77
2023-01-12T01:37:07.281Z,5.94
2023-01-12T01:39:35.434Z,5.80
2023-01-12T01:42:04.630Z,5.90
2023-01-12T01:44:51.756Z,5.86
2023-01-12T01:47:28.004Z,5.83
2023-01-12T01:50:00.819Z,5.91
2023-01-12T01:52:34.415Z,5.86
2023-01-12T01:55:07.925Z,5.84
2023-01-12T01:57:42.326Z,5.82
2023-01-12T02:00:12.902Z,5.78
2023-01-12T02:02:42.976Z,5.74
2023-01-12T02:05:13.628Z,5.86
2023-01-12T02:07:42.034Z,5.84
2023-01-12T02:10:11.215Z,5.74
2023-01-12T02:12:57.843Z,5.78
2023-01-12T02:15:46.860Z,5.92
2023-01-12T02:18:24.235Z,5.80
2023-01-12T02:21:18.545Z,5.61
2023-01-12T02:24:20.511Z,5.82
2023-01-12T02:27:26.073Z,5.92
2023-01-12T02:30:25.986Z,6.01
2023-01-12T02:33:08.832Z,5.84
2023-01-12T02:35:45.150Z,5.84
2023-01-12T02:38:23.547Z,5.83
2023-01-12T02:40:59.595Z,5.96
2023-01-12T02:43:29.852Z,5.89
2023-01-12T02:46:02.664Z,5.98
2023-01-12T02:48:37.686Z,5.88
2023-01-12T02:51:10.899Z,5.71
2023-01-12T02:53:44.775Z,5.85
2023-01-12T02:56:16.411Z,5.65
2023-01-12T02:58:50.243Z,5.85
2023-01-12T03:01:20.544Z,5.66
2023-01-12T03:03:52.164Z,5.89
2023-01-12T03:06:19.920Z,5.79
2023-01-12T03:08:50.535Z,5.96
2023-01-12T03:11:20.127Z,5.84
2023-01-12T03:13:51.368Z,5.87
2023-01-12T03:16:22.123Z,5.94
2023-01-12T03:18:57.051Z,5.85
2023-01-12T03:21:30.995Z,5.93
2023-01-12T03:24:05.204Z,5.85
2023-01-12T03:26:36.452Z,5.95
2023-01-12T03:29:09.489Z,5.94
2023-01-12T03:31:38.589Z,5.88
2023-01-12T03:34:09.300Z,5.88
2023-01-12T03:36:46.074Z,5.81
2023-01-12T03:39:23.146Z,5.86
2023-01-12T03:41:57.798Z,5.87
2023-01-12T03:44:36.256Z,5.84
2023-01-12T03:47:11.390Z,5.88
2023-01-12T03:49:45.529Z,6.06
2023-01-12T03:52:13.908Z,5.87
2023-01-12T03:54:43.754Z,5.96
2023-01-12T03:57:14.083Z,6.02
2023-01-12T03:59:42.971Z,6.09
2023-01-12T04:02:10.933Z,5.87
2023-01-12T04:04:39.265Z,5.97
2023-01-12T04:07:08.295Z,6.10
2023-01-12T04:09:37.726Z,6.10
2023-01-12T04:12:10.602Z,6.06
2023-01-12T04:14:39.470Z,5.87
2023-01-12T04:17:07.573Z,5.81
2023-01-12T04:19:35.588Z,5.83
2023-01-12T04:22:21.019Z,5.79
2023-01-12T04:24:50.487Z,5.74
2023-01-12T04:27:18.925Z,5.62
2023-01-12T04:30:09.456Z,5.72
2023-01-12T04:32:40.144Z,5.65
2023-01-12T04:35:08.723Z,5.75
2023-01-12T04:37:36.441Z,5.79
2023-01-12T04:40:07.380Z,5.59
2023-01-12T04:42:52.621Z,5.77
2023-01-12T04:45:20.627Z,5.65
2023-01-12T04:47:51.178Z,5.77
2023-01-12T04:50:19.273Z,5.82
2023-01-12T04:52:46.907Z,5.61
2023-01-12T04:55:16.115Z,5.66
2023-01-12T04:57:43.768Z,5.76
2023-01-12T05:00:12.636Z,5.74
2023-01-12T05:02:40.278Z,5.83
2023-01-12T05:05:09.955Z,5.79
2023-01-12T05:07:37.674Z,5.72
2023-01-12T05:10:23.198Z,5.64
2023-01-12T05:12:52.193Z,5.61
2023-01-12T05:15:20.328Z,5.57
2023-01-12T05:17:47.951Z,5.67
2023-01-12T05:20:16.421Z,5.72
2023-01-12T05:22:44.246Z,5.87
2023-01-12T05:25:11.926Z,5.83
2023-01-12T05:27:39.564Z,5.91
2023-01-12T05:30:10.592Z,5.90
2023-01-12T05:32:39.060Z,5.79
2023-01-12T05:35:07.917Z,5.86
2023-01-12T05:37:37.113Z,5.89
2023-01-12T05:40:05.527Z,5.88
2023-01-12T05:42:50.774Z,5.94
2023-01-12T05:45:19.879Z,5.99
2023-01-12T05:47:48.000Z,5.68
2023-01-12T05:50:15.879Z,5.76
2023-01-12T05:53:04.228Z,5.84
2023-01-12T05:55:31.894Z,5.85
2023-01-12T05:58:00.857Z,5.92
2023-01-12T06:00:30.266Z,5.76
2023-01-12T06:02:58.451Z,5.79
2023-01-12T06:05:26.097Z,5.88
2023-01-12T06:07:54.211Z,5.80
2023-01-12T06:10:21.881Z,5.86
2023-01-12T06:13:14.563Z,5.81
2023-01-12T06:15:43.761Z,5.65
2023-01-12T06:18:11.797Z,5.74
2023-01-12T06:20:39.475Z,5.63
2023-01-12T06:23:07.428Z,5.71
2023-01-12T06:25:35.068Z,5.62
2023-01-12T06:28:05.987Z,5.71
2023-01-12T06:30:33.671Z,5.69
2023-01-12T06:33:04.625Z,5.64
2023-01-12T06:35:32.266Z,5.72
2023-01-12T06:38:00.809Z,5.78
2023-01-12T06:40:28.451Z,5.93
2023-01-12T06:42:56.916Z,5.89
2023-01-12T06:45:24.548Z,6.03
2023-01-12T06:47:52.494Z,6.02
2023-01-12T06:50:21.528Z,5.99
2023-01-12T06:52:50.299Z,5.87
2023-01-12T06:55:18.051Z,5.93
2023-01-12T06:57:46.052Z,5.89
2023-01-12T07:00:15.078Z,5.88
2023-01-12T07:02:43.155Z,5.85
2023-01-12T07:05:11.148Z,5.76
2023-01-12T07:07:40.743Z,6.05
2023-01-12T07:10:09.383Z,6.03
2023-01-12T07:12:38.062Z,5.98
2023-01-12T07:15:06.951Z,6.12
2023-01-12T07:17:34.756Z,6.02
2023-01-12T07:20:02.420Z,6.08
2023-01-12T07:22:30.535Z,6.18
2023-01-12T07:24:59.555Z,6.14
2023-01-12T07:27:27.648Z,6.33
2023-01-12T07:29:55.825Z,6.39
2023-01-12T07:32:27.113Z,6.36
2023-01-12T07:34:54.740Z,6.20
2023-01-12T07:37:22.785Z,6.44
2023-01-12T07:39:50.449Z,6.55
2023-01-12T07:42:25.727Z,6.45
2023-01-12T07:44:53.780Z,6.56
2023-01-12T07:47:21.636Z,6.67
2023-01-12T07:49:49.793Z,6.78
2023-01-12T07:52:17.696Z,6.77
2023-01-12T07:54:46.494Z,6.73
2023-01-12T07:57:14.641Z,6.81
2023-01-12T07:59:43.992Z,6.94
2023-01-12T08:02:16.342Z,6.80
2023-01-12T08:04:44.748Z,6.75
2023-01-12T08:07:13.239Z,6.95
2023-01-12T08:09:41.232Z,6.83
2023-01-12T08:12:08.952Z,6.89
2023-01-12T08:14:39.328Z,6.90
2023-01-12T08:17:15.699Z,7.08
2023-01-12T08:19:49.070Z,7.08
2023-01-12T08:22:23.444Z,7.25
2023-01-12T08:24:55.306Z,7.29
2023-01-12T08:27:27.461Z,7.29
2023-01-12T08:29:58.514Z,7.35
2023-01-12T08:32:29.460Z,7.57
2023-01-12T08:35:02.154Z,7.54
2023-01-12T08:37:32.488Z,7.83
2023-01-12T08:40:00.988Z,7.80
2023-01-12T08:42:31.533Z,7.75
2023-01-12T08:44:59.562Z,7.78
2023-01-12T08:47:30.557Z,7.83
2023-01-12T08:50:00.306Z,7.85
2023-01-12T08:52:29.403Z,7.99
2023-01-12T08:54:57.450Z,8.11
2023-01-12T08:57:25.103Z,8.07
2023-01-12T08:59:52.817Z,8.14
2023-01-12T09:02:20.499Z,8.07
2023-01-12T09:04:52.682Z,7.85
2023-01-12T09:07:23.311Z,7.90
2023-01-12T09:09:51.372Z,7.94
2023-01-12T09:12:19.200Z,8.04
2023-01-12T09:14:46.856Z,7.91
2023-01-12T09:17:14.558Z,7.93
2023-01-12T09:19:44.133Z,7.96
2023-01-12T09:22:13.146Z,7.88
2023-01-12T09:24:41.791Z,7.69
2023-01-12T09:27:11.401Z,7.85
2023-01-12T09:29:39.362Z,7.92
2023-01-12T09:32:07.005Z,8.06
2023-01-12T09:34:35.373Z,8.03
2023-01-12T09:37:03.101Z,8.09
2023-01-12T09:39:32.360Z,8.03
2023-01-12T09:42:18.045Z,8.18
2023-01-12T09:45:07.320Z,8.15
2023-01-12T09:47:39.079Z,8.19
2023-01-12T09:50:10.791Z,8.33
2023-01-12T09:52:42.506Z,8.14
2023-01-12T09:55:15.821Z,8.11
2023-01-12T09:58:07.491Z,8.28
2023-01-12T10:00:35.522Z,8.21
2023-01-12T10:03:12.816Z,8.43
2023-01-12T10:05:46.427Z,8.41
2023-01-12T10:08:18.807Z,8.28
2023-01-12T10:11:01.080Z,8.19
2023-01-12T10:13:46.543Z,8.30
2023-01-12T10:16:22.363Z,8.24
2023-01-12T10:18:54.800Z,8.38
2023-01-12T10:21:24.667Z,8.34
2023-01-12T10:23:54.833Z,8.25
2023-01-12T10:26:25.844Z,8.20
2023-01-12T10:28:56.237Z,8.30
2023-01-12T10:31:26.113Z,8.38
2023-01-12T10:34:05.004Z,8.44
2023-01-12T10:36:35.815Z,8.23
2023-01-12T10:39:05.563Z,8.42
2023-01-12T10:41:37.726Z,8.44
2023-01-12T10:44:16.580Z,8.36
2023-01-12T10:46:44.984Z,8.58
2023-01-12T10:49:21.206Z,8.59
2023-01-12T10:51:53.094Z,8.58
2023-01-12T10:54:24.445Z,8.65
2023-01-12T10:56:59.780Z,8.77
2023-01-12T10:59:31.432Z,8.69
2023-01-12T11:02:15.725Z,8.64
2023-01-12T11:04:45.979Z,8.21
2023-01-12T11:07:19.860Z,8.35
2023-01-12T11:09:47.560Z,8.52
2023-01-12T11:12:27.554Z,8.47
2023-01-12T11:15:01.273Z,8.68
2023-01-12T11:17:43.678Z,8.48
2023-01-12T11:20:21.514Z,8.44
2023-01-12T11:22:52.625Z,8.48
2023-01-12T11:25:24.558Z,8.41
2023-01-12T11:27:57.879Z,8.41
2023-01-12T11:30:37.231Z,8.67
2023-01-12T11:33:11.951Z,8.52
2023-01-12T11:35:46.557Z,8.45
2023-01-12T11:38:19.664Z,8.62
2023-01-12T11:40:49.038Z,8.67
2023-01-12T11:43:50.204Z,8.51
2023-01-12T11:46:26.911Z,8.55
2023-01-12T11:49:13.640Z,8.49
2023-01-12T11:51:42.972Z,8.66
2023-01-12T11:54:15.167Z,8.48
2023-01-12T11:57:04.651Z,8.51
2023-01-12T11:59:42.537Z,8.53
2023-01-12T12:02:24.327Z,8.72
2023-01-12T12:05:03.892Z,8.43
2023-01-12T12:07:50.511Z,8.46
2023-01-12T12:10:25.322Z,8.72
2023-01-12T12:13:17.816Z,8.57
2023-01-12T12:15:55.923Z,8.73
2023-01-12T12:18:39.949Z,8.42
2023-01-12T12:21:18.085Z,8.69
2023-01-12T12:23:56.949Z,8.62
2023-01-12T12:26:30.842Z,8.70
2023-01-12T12:29:17.209Z,8.80
2023-01-12T12:32:02.781Z,8.72
2023-01-12T12:34:59.939Z,8.85
2023-01-12T12:37:44.323Z,8.67
2023-01-12T12:40:24.422Z,8.62
2023-01-12T12:43:18.640Z,8.78
2023-01-12T12:45:52.742Z,8.66
2023-01-12T12:48:27.147Z,8.94
2023-01-12T12:51:04.367Z,8.69
2023-01-12T12:53:35.839Z,9.13
2023-01-12T12:56:06.724Z,9.07
2023-01-12T12:58:43.842Z,9.20
2023-01-12T13:01:58.533Z,8.78
2023-01-12T13:05:04.992Z,9.09
2023-01-12T13:07:38.407Z,8.83
2023-01-12T13:10:31.334Z,9.19
2023-01-12T13:13:24.200Z,9.08
2023-01-12T13:16:12.411Z,9.07
2023-01-12T13:18:44.782Z,8.87
2023-01-12T13:21:33.610Z,8.72
2023-01-12T13:24:27.401Z,8.97
2023-01-12T13:26:57.735Z,9.08
2023-01-12T13:29:45.577Z,9.22
2023-01-12T13:32:36.640Z,8.97
2023-01-12T13:35:05.034Z,8.81
2023-01-12T13:37:49.304Z,9.20
2023-01-12T13:40:20.979Z,9.11
2023-01-12T13:43:08.433Z,9.14
2023-01-12T13:45:37.870Z,9.13
2023-01-12T13:48:10.503Z,9.07
2023-01-12T13:50:39.307Z,9.17
2023-01-12T13:53:23.668Z,9.07
2023-01-12T13:56:00.243Z,9.11
2023-01-12T13:58:30.180Z,9.01
2023-01-12T14:01:00.190Z,9.07
2023-01-12T14:03:51.519Z,8.94
2023-01-12T14:06:30.220Z,8.90
2023-01-12T14:09:14.391Z,8.93
2023-01-12T14:12:07.711Z,8.86
2023-01-12T14:15:26.252Z,8.65
2023-01-12T14:18:04.068Z,8.62
2023-01-12T14:20:32.357Z,8.66
2023-01-12T14:23:19.181Z,8.86
2023-01-12T14:26:03.678Z,8.79
2023-01-12T14:28:31.851Z,8.98
2023-01-12T14:31:00.004Z,8.93
2023-01-12T14:33:30.516Z,8.83
2023-01-12T14:36:03.971Z,8.76
2023-01-12T14:38:34.500Z,8.82
2023-01-12T14:41:06.803Z,8.78
2023-01-12T14:43:54.273Z,8.71
2023-01-12T14:46:28.177Z,8.80
2023-01-12T14:49:01.651Z,8.75
2023-01-12T14:51:33.942Z,8.63
2023-01-12T14:54:17.603Z,8.74
2023-01-12T14:56:56.259Z,8.79
2023-01-12T14:59:29.055Z,8.69
2023-01-12T15:02:21.922Z,8.52
2023-01-12T15:04:57.645Z,8.73
2023-01-12T15:07:30.204Z,8.70
2023-01-12T15:10:00.239Z,8.76
2023-01-12T15:12:47.482Z,8.65
2023-01-12T15:15:20.874Z,8.69
2023-01-12T15:18:06.886Z,8.52
2023-01-12T15:20:54.908Z,8.53
2023-01-12T15:23:47.940Z,8.42
2023-01-12T15:26:15.612Z,8.46
2023-01-12T15:28:46.096Z,8.45
2023-01-12T15:31:19.192Z,8.59
2023-01-12T15:33:47.091Z,8.63
2023-01-12T15:36:15.300Z,8.71
2023-01-12T15:38:43.065Z,8.47
2023-01-12T15:41:17.694Z,8.51
2023-01-12T15:43:47.047Z,8.45
2023-01-12T15:46:20.550Z,8.58
2023-01-12T15:48:48.401Z,8.41
2023-01-12T15:51:16.939Z,8.36
2023-01-12T15:53:44.720Z,8.32
2023-01-12T15:56:16.435Z,8.21
2023-01-12T15:58:44.096Z,8.25
2023-01-12T16:01:17.890Z,8.40
2023-01-12T16:04:07.239Z,8.47
2023-01-12T16:06:34.892Z,8.31
2023-01-12T16:09:02.560Z,8.41
2023-01-12T16:11:30.555Z,8.42
2023-01-12T16:13:58.465Z,8.27
2023-01-12T16:16:29.080Z,8.21
2023-01-12T16:18:59.787Z,8.17
2023-01-12T16:21:29.125Z,8.17
2023-01-12T16:23:57.850Z,8.15
2023-01-12T16:26:26.056Z,8.02
2023-01-12T16:28:53.818Z,8.01
2023-01-12T16:31:22.338Z,8.08
2023-01-12T16:33:51.459Z,8.01
2023-01-12T16:36:19.576Z,8.02
2023-01-12T16:38:47.396Z,8.01
2023-01-12T16:41:19.082Z,8.19
2023-01-12T16:43:47.572Z,8.18
2023-01-12T16:46:16.421Z,8.17
2023-01-12T16:48:44.393Z,8.07
2023-01-12T16:51:15.085Z,8.02
2023-01-12T16:53:43.506Z,8.16
2023-01-12T16:56:13.122Z,8.12
2023-01-12T16:58:41.936Z,8.04
2023-01-12T17:01:12.496Z,8.10
2023-01-12T17:03:41.552Z,8.04
2023-01-12T17:06:12.517Z,8.00
2023-01-12T17:08:42.447Z,8.08
2023-01-12T17:11:12.768Z,7.87
2023-01-12T17:13:41.129Z,7.85
2023-01-12T17:16:10.428Z,8.04
2023-01-12T17:18:38.947Z,7.90
2023-01-12T17:21:12.890Z,7.87
2023-01-12T17:23:43.503Z,7.80
2023-01-12T17:26:13.963Z,7.90
2023-01-12T17:28:42.112Z,7.94
2023-01-12T17:31:12.461Z,7.82
2023-01-12T17:33:40.609Z,7.88
2023-01-12T17:36:11.976Z,7.77
2023-01-12T17:38:40.554Z,7.90
2023-01-12T17:41:30.785Z,7.92
2023-01-12T17:43:57.645Z,7.83
2023-01-12T17:46:25.626Z,7.84
2023-01-12T17:48:53.456Z,7.75
2023-01-12T17:51:21.672Z,7.98
2023-01-12T17:53:49.703Z,7.85
2023-01-12T17:56:19.058Z,7.91
2023-01-12T17:58:50.746Z,7.89
2023-01-12T18:01:19.175Z,7.94
2023-01-12T18:03:47.354Z,7.87
2023-01-12T18:06:25.751Z,7.86
2023-01-12T18:08:56.252Z,7.81
2023-01-12T18:11:25.952Z,7.86
2023-01-12T18:13:53.913Z,7.89
2023-01-12T18:16:22.742Z,7.71
2023-01-12T18:18:50.987Z,7.80
2023-01-12T18:21:21.610Z,7.96
2023-01-12T18:23:50.200Z,7.81
2023-01-12T18:26:21.151Z,7.84
2023-01-12T18:28:50.821Z,7.83
2023-01-12T18:31:21.157Z,7.79
2023-01-12T18:33:49.226Z,7.81
2023-01-12T18:36:22.080Z,7.82
2023-01-12T18:38:50.773Z,7.79
2023-01-12T18:41:49.394Z,7.87
2023-01-12T18:44:18.438Z,7.86
2023-01-12T18:47:04.105Z,7.86
2023-01-12T18:49:33.428Z,7.67
2023-01-12T18:52:19.607Z,7.75
2023-01-12T18:54:48.419Z,7.80
2023-01-12T18:57:18.342Z,7.83
2023-01-12T18:59:51.321Z,7.72
2023-01-12T19:02:20.728Z,7.74
2023-01-12T19:05:13.674Z,7.57
2023-01-12T19:08:02.311Z,7.61
2023-01-12T19:10:30.080Z,7.72
2023-01-12T19:13:12.883Z,7.63
2023-01-12T19:16:00.120Z,7.70
2023-01-12T19:18:29.149Z,7.74
2023-01-12T19:21:22.250Z,7.66
2023-01-12T19:24:07.566Z,7.61
2023-01-12T19:26:52.723Z,7.48
2023-01-12T19:29:20.387Z,7.53
2023-01-12T19:31:49.480Z,7.54
2023-01-12T19:34:17.315Z,7.56
2023-01-12T19:36:44.933Z,7.62
2023-01-12T19:39:13.454Z,7.49
2023-01-12T19:41:58.695Z,7.19
2023-01-12T19:44:26.658Z,7.49
2023-01-12T19:46:55.676Z,7.39
2023-01-12T19:49:23.683Z,7.36
2023-01-12T19:51:51.323Z,7.33
2023-01-12T19:54:19.288Z,7.38
2023-01-12T19:56:47.578Z,7.39
2023-01-12T19:59:15.855Z,7.30
2023-01-12T20:01:43.576Z,7.45
2023-01-12T20:04:12.952Z,7.41
2023-01-12T20:06:40.611Z,7.40
2023-01-12T20:09:08.807Z,7.49
2023-01-12T20:11:36.752Z,7.55
2023-01-12T20:14:05.281Z,7.68
2023-01-12T20:16:33.610Z,7.66
2023-01-12T20:19:01.983Z,7.65
2023-01-12T20:21:31.002Z,7.56
2023-01-12T20:23:59.356Z,7.48
2023-01-12T20:26:27.058Z,7.45
2023-01-12T20:28:55.079Z,7.60
2023-01-12T20:31:23.324Z,7.55
2023-01-12T20:33:51.686Z,7.65
2023-01-12T20:36:19.345Z,7.63
2023-01-12T20:38:51.139Z,7.78
2023-01-12T20:41:19.736Z,7.81
2023-01-12T20:43:48.062Z,7.84
2023-01-12T20:46:16.084Z,7.94
2023-01-12T20:48:45.707Z,7.84
2023-01-12T20:51:15.375Z,8.12
2023-01-12T20:53:44.470Z,8.13
2023-01-12T20:56:13.647Z,8.17
2023-01-12T20:58:41.464Z,7.99
2023-01-12T21:01:10.388Z,8.11
2023-01-12T21:03:39.147Z,8.13
2023-01-12T21:06:09.897Z,8.07
2023-01-12T21:08:39.234Z,7.61
2023-01-12T21:11:07.402Z,8.06
2023-01-12T21:13:36.930Z,7.93
2023-01-12T21:16:07.172Z,7.94
2023-01-12T21:18:35.588Z,7.94
2023-01-12T21:21:04.809Z,7.83
2023-01-12T21:23:32.798Z,8.13
2023-01-12T21:26:00.746Z,8.17
2023-01-12T21:28:30.421Z,8.21
2023-01-12T21:31:02.980Z,8.29
2023-01-12T21:33:31.185Z,8.35
2023-01-12T21:36:00.452Z,8.45
2023-01-12T21:38:30.328Z,8.24
2023-01-12T21:41:02.397Z,8.02
2023-01-12T21:43:29.418Z,8.03
2023-01-12T21:45:58.655Z,8.05
2023-01-12T21:48:27.643Z,7.98
2023-01-12T21:51:02.186Z,7.99
2023-01-12T21:53:29.802Z,8.08
2023-01-12T21:56:00.460Z,8.11
2023-01-12T21:58:30.237Z,8.05
2023-01-12T22:01:00.082Z,8.11
2023-01-12T22:03:29.900Z,7.92
2023-01-12T22:06:05.450Z,7.97
2023-01-12T22:08:34.718Z,8.12
2023-01-12T22:11:07.414Z,8.08
2023-01-12T22:13:35.295Z,8.04
2023-01-12T22:16:04.104Z,8.26
2023-01-12T22:18:34.198Z,8.11
2023-01-12T22:21:03.178Z,8.02
2023-01-12T22:23:31.183Z,8.19
2023-01-12T22:26:02.119Z,8.10
2023-01-12T22:28:30.156Z,8.13
2023-01-12T22:30:58.162Z,7.92
2023-01-12T22:33:25.947Z,8.20
2023-01-12T22:35:56.153Z,8.07
2023-01-12T22:38:23.823Z,8.16
2023-01-12T22:40:51.498Z,8.40
2023-01-12T22:43:29.331Z,8.32
2023-01-12T22:45:59.098Z,8.30
2023-01-12T22:48:27.907Z,8.36
2023-01-12T22:51:01.944Z,8.19
2023-01-12T22:53:29.584Z,8.28
2023-01-12T22:56:00.343Z,8.24
2023-01-12T22:58:28.152Z,8.11
2023-01-12T23:00:56.452Z,8.13
2023-01-12T23:03:24.271Z,8.15
2023-01-12T23:05:56.419Z,8.20
2023-01-12T23:08:26.152Z,8.20
2023-01-12T23:11:04.018Z,8.04
2023-01-12T23:13:31.845Z,8.03
2023-01-12T23:16:04.715Z,8.13
2023-01-12T23:18:34.371Z,8.12
2023-01-12T23:21:11.319Z,8.21
2023-01-12T23:23:41.600Z,8.21
2023-01-12T23:26:11.919Z,8.15
2023-01-12T23:28:43.825Z,8.17
2023-01-12T23:31:14.472Z,8.17
2023-01-12T23:33:43.699Z,8.15
2023-01-12T23:36:17.475Z,8.18
2023-01-12T23:38:47.111Z,8.36
2023-01-12T23:41:16.668Z,8.31
2023-01-12T23:43:45.073Z,8.32
2023-01-12T23:46:13.549Z,8.31
2023-01-12T23:48:41.739Z,8.33
2023-01-12T23:51:10.483Z,8.24
2023-01-12T23:53:38.337Z,8.41
2023-01-12T23:56:09.997Z,8.40
2023-01-12T23:58:38.319Z,8.32
